Time;durP1;ratioP1;P1;durP2;ratioP2;P2;SDS_P1;SDS_P2;PMS_P1;PMS_P2;Temp;Humidity;BMP_temperature;BMP_pressure;BME280_temperature;BME280_humidity;BME280_pressure;Samples;Min_cycle;Max_cycle;Signal;HPM_P1;HPM_P2
2021/06/24 09:30:41;;;;;;;18.55;5.35;;;;;;;32.78;36.70;99899.88;1778452;79;23541;-82
2021/06/24 09:33:17;;;;;;;13.70;4.50;;;;;;;32.75;37.32;99896.50;1725572;83;21011;-83
2021/06/24 09:35:57;;;;;;;31.60;5.47;;;;;;;32.77;37.76;99898.28;1725683;83;21210;-87
2021/06/24 09:38:24;;;;;;;33.42;5.97;;;;;;;32.80;38.03;99894.14;1697116;83;21540;-83
2021/06/24 09:40:54;;;;;;;27.37;6.62;;;;;;;32.88;38.87;99891.55;1725564;83;20952;-85
2021/06/24 09:43:35;;;;;;;27.60;5.20;;;;;;;32.96;39.52;99892.35;1725491;83;20962;-77
2021/06/24 09:46:15;;;;;;;21.75;6.40;;;;;;;33.05;40.58;99891.96;1716357;82;20980;-82
2021/06/24 09:48:45;;;;;;;28.42;6.17;;;;;;;33.13;40.66;99889.41;1732362;82;21684;-82
2021/06/24 09:51:34;;;;;;;39.05;6.95;;;;;;;33.20;41.57;99888.03;1671179;84;21043;-82
2021/06/24 09:54:15;;;;;;;43.00;7.00;;;;;;;33.24;41.92;99888.83;1700037;84;21019;-78
2021/06/24 09:56:46;;;;;;;35.05;9.15;;;;;;;33.23;42.26;99892.23;1699515;84;21071;-78
2021/06/24 09:59:15;;;;;;;27.80;6.62;;;;;;;33.22;42.13;99891.23;1707413;84;22267;-78
2021/06/24 10:01:47;;;;;;;25.00;5.55;;;;;;;33.24;39.49;99889.63;1707218;84;21767;-77
2021/06/24 10:04:24;;;;;;;12.88;5.05;;;;;;;33.32;37.63;99885.46;1707555;83;21041;-80
2021/06/24 10:06:55;;;;;;;18.45;4.08;;;;;;;33.33;37.12;99885.07;1710539;82;21558;-79
2021/06/24 10:09:24;;;;;;;25.37;5.05;;;;;;;33.40;37.30;99881.47;1722916;83;21025;-81
2021/06/24 10:11:50;;;;;;;16.77;4.37;;;;;;;33.48;37.12;99877.50;1728461;83;21063;-79
2021/06/24 10:14:19;;;;;;;21.45;5.08;;;;;;;33.52;35.94;99876.30;1729220;83;21126;-83
2021/06/24 10:16:53;;;;;;;15.00;4.40;;;;;;;33.61;36.44;99873.09;1728375;83;21558;-83
2021/06/24 10:19:32;;;;;;;41.13;6.53;;;;;;;33.69;36.61;99874.70;1688191;83;21049;-81
2021/06/24 10:22:16;;;;;;;28.07;5.75;;;;;;;33.72;36.65;99870.50;1720299;83;20977;-79
2021/06/24 10:25:11;;;;;;;21.95;4.80;;;;;;;33.80;36.62;99871.30;1725485;83;21041;-78
2021/06/24 10:27:40;;;;;;;32.63;5.20;;;;;;;33.89;35.56;99869.48;1663151;83;21664;-79
2021/06/24 10:30:18;;;;;;;25.77;4.47;;;;;;;34.01;35.23;99860.65;1716065;83;21025;-78
2021/06/24 10:32:56;;;;;;;13.08;4.55;;;;;;;34.10;34.42;99861.81;1692861;84;21035;-77
2021/06/24 10:35:34;;;;;;;20.77;4.75;;;;;;;34.19;32.85;99861.44;1677424;84;21004;-77
2021/06/24 10:38:02;;;;;;;37.23;6.28;;;;;;;34.30;33.36;99870.55;1715185;83;21542;-77
2021/06/24 10:40:36;;;;;;;21.35;4.78;;;;;;;34.40;33.12;99859.94;1760284;81;21111;-77
2021/06/24 10:43:09;;;;;;;17.30;4.92;;;;;;;34.51;33.77;99859.29;1760009;81;20986;-78
2021/06/24 10:45:36;;;;;;;19.02;4.20;;;;;;;34.65;32.82;99864.59;1738731;81;21058;-76
2021/06/24 10:48:27;;;;;;;19.02;5.50;;;;;;;34.75;31.88;99858.98;1760020;81;21031;-76
2021/06/24 10:51:08;;;;;;;22.60;4.03;;;;;;;34.89;32.02;99858.08;1760885;81;21540;-78
2021/06/24 10:53:41;;;;;;;19.90;4.72;;;;;;;35.01;32.05;99862.58;1750069;81;21078;-77
2021/06/24 10:56:28;;;;;;;13.93;4.33;;;;;;;35.14;31.62;99857.91;1758649;81;20924;-72
2021/06/24 10:58:55;;;;;;;15.72;3.75;;;;;;;35.19;31.41;99855.49;1721706;82;20978;-77
2021/06/24 11:01:46;;;;;;;18.80;4.78;;;;;;;35.10;31.64;99849.55;1734726;82;21094;-78
2021/06/24 11:04:30;;;;;;;29.77;6.22;;;;;;;35.10;31.92;99852.95;1753630;81;21066;-80
2021/06/24 11:06:58;;;;;;;24.12;5.85;;;;;;;35.25;32.39;99848.86;1765378;80;21760;-79
2021/06/24 11:09:25;;;;;;;18.60;4.67;;;;;;;35.37;31.78;99839.34;1753048;80;20954;-80
2021/06/24 11:11:52;;;;;;;17.80;5.28;;;;;;;35.46;31.29;99839.46;1732752;82;21013;-73
2021/06/24 11:14:54;;;;;;;18.30;3.83;;;;;;;35.47;31.49;99844.65;1708101;82;21030;-76
2021/06/24 11:17:49;;;;;;;20.17;4.45;;;;;;;35.37;31.74;99846.34;1731664;82;21054;-75
2021/06/24 11:20:18;;;;;;;24.12;4.83;;;;;;;35.32;32.09;99832.00;1727519;81;21139;-75
2021/06/24 11:22:47;;;;;;;23.45;5.83;;;;;;;35.23;32.62;99835.28;1758136;81;21580;-76
2021/06/24 11:25:14;;;;;;;27.05;5.58;;;;;;;35.22;32.50;99840.67;1764730;80;21004;-74
2021/06/24 11:27:41;;;;;;;18.85;5.87;;;;;;;35.12;32.73;99838.73;1764784;80;21485;-75
2021/06/24 11:30:11;;;;;;;21.75;4.90;;;;;;;35.06;33.06;99838.20;1764219;80;21090;-73
2021/06/24 11:32:39;;;;;;;30.02;5.70;;;;;;;35.10;33.69;99838.97;1730396;82;21269;-75
2021/06/24 11:35:29;;;;;;;6.95;3.58;;;;;;;35.20;33.61;99829.12;1730214;83;20987;-77
2021/06/24 11:37:45;;;;;;;15.80;3.52;;;;;;;35.22;33.47;99837.08;1734747;81;20995;-71
2021/06/24 11:40:14;;;;;;;22.07;5.90;;;;;;;35.16;33.98;99831.09;1738484;81;21006;-75
2021/06/24 11:42:43;;;;;;;24.15;5.85;;;;;;;35.19;33.67;99824.73;1730318;83;20982;-78
2021/06/24 11:45:13;;;;;;;26.97;5.75;;;;;;;35.12;34.19;99830.34;1731036;81;22030;-75
2021/06/24 11:47:44;;;;;;;24.63;5.45;;;;;;;35.09;34.38;99814.40;1730417;83;21143;-76
2021/06/24 12:03:05;;;;;;;23.07;6.00;;;;;;;35.34;34.13;99822.60;1684639;83;21031;-76
2021/06/24 12:04:32;;;;;;;32.65;6.97;;;;;;;35.25;34.64;99819.49;1720201;83;21052;-75
2021/06/24 12:07:07;;;;;;;21.00;4.95;;;;;;;35.16;34.92;99817.11;1705381;83;21009;-74
2021/06/24 12:09:50;;;;;;;24.25;5.70;;;;;;;35.20;34.90;99817.94;1721562;83;21084;-75
2021/06/24 12:12:20;;;;;;;30.77;5.95;;;;;;;35.31;34.97;99820.61;1705364;83;21031;-74
2021/06/24 12:14:51;;;;;;;28.85;6.75;;;;;;;35.47;35.07;99816.67;1730642;82;20970;-76
2021/06/24 12:17:31;;;;;;;20.88;5.70;;;;;;;35.68;33.84;99810.09;1730395;83;20983;-77
2021/06/24 12:20:18;;;;;;;18.32;5.28;;;;;;;35.76;33.96;99800.40;1723178;83;21074;-74
2021/06/24 12:23:01;;;;;;;21.57;4.90;;;;;;;35.70;33.06;99797.26;1716344;83;21001;-77
2021/06/24 12:25:35;;;;;;;23.00;6.15;;;;;;;35.64;34.30;99793.29;1730160;83;21502;-77
2021/06/24 12:28:04;;;;;;;22.75;5.53;;;;;;;35.78;34.01;99798.75;1732963;82;20902;-77
2021/06/24 12:30:37;;;;;;;16.97;5.60;;;;;;;36.08;33.19;99792.39;1698525;83;21017;-79
2021/06/24 12:33:09;;;;;;;25.52;6.28;;;;;;;36.08;33.19;99792.39;1723732;83;20965;-79
2021/06/24 12:35:46;;;;;;;18.35;4.70;;;;;;;36.35;32.75;99795.28;1702865;83;21526;-79
2021/06/24 12:38:18;;;;;;;20.55;7.83;;;;;;;36.54;32.51;99798.01;1724019;83;21137;-77
2021/06/24 12:40:49;;;;;;;16.45;4.67;;;;;;;36.64;32.41;99789.45;1764886;81;21003;-80
2021/06/24 12:43:19;;;;;;;21.05;4.67;;;;;;;36.80;31.22;99794.41;1751558;81;21248;-77
2021/06/24 12:45:49;;;;;;;28.12;5.62;;;;;;;36.90;32.06;99801.07;1764929;80;20940;-79
2021/06/24 12:48:39;;;;;;;23.05;5.58;;;;;;;36.86;30.85;99784.91;1764802;80;21502;-79
2021/06/24 12:51:20;;;;;;;21.12;5.70;;;;;;;36.86;30.72;99793.33;1751739;81;21042;-78
2021/06/24 12:53:53;;;;;;;16.65;4.90;;;;;;;36.83;31.40;99788.58;1754096;81;21014;-79
2021/06/24 12:56:26;;;;;;;29.48;6.15;;;;;;;36.85;31.81;99788.94;1765286;80;20921;-78
2021/06/24 12:58:54;;;;;;;19.75;5.12;;;;;;;36.74;32.31;99785.53;1765527;80;21504;-80
2021/06/24 13:01:22;;;;;;;10.93;4.50;;;;;;;36.61;32.57;99793.71;1765742;81;21031;-78
2021/06/24 13:03:56;;;;;;;13.90;4.67;;;;;;;36.53;32.76;99790.20;1752079;81;21072;-80
2021/06/24 13:06:26;;;;;;;18.15;5.37;;;;;;;36.56;32.49;99790.75;1765417;81;20943;-79
2021/06/24 13:09:01;;;;;;;23.30;5.28;;;;;;;36.72;32.28;99785.14;1765363;80;20971;-78
2021/06/24 13:11:37;;;;;;;11.97;4.17;;;;;;;36.90;32.48;99782.23;1752147;81;21512;-78
2021/06/24 13:14:09;;;;;;;12.25;4.58;;;;;;;37.08;30.72;99788.36;1764819;80;21059;-78
2021/06/24 13:16:43;;;;;;;19.23;4.78;;;;;;;37.26;30.81;99785.88;1765115;80;21115;-79
2021/06/24 13:19:20;;;;;;;38.28;7.17;;;;;;;37.39;30.75;99774.99;1764810;81;21006;-79
2021/06/24 13:22:11;;;;;;;18.52;5.55;;;;;;;37.58;31.04;99780.48;1752558;81;20960;-79
2021/06/24 13:24:51;;;;;;;15.28;4.20;;;;;;;37.65;31.25;99774.70;1751318;81;21008;-80
2021/06/24 13:27:26;;;;;;;12.28;4.37;;;;;;;37.70;29.57;99771.40;1764707;80;21019;-79
2021/06/24 13:30:06;;;;;;;11.63;4.65;;;;;;;37.76;28.45;99771.08;1764496;81;21146;-77
2021/06/24 13:32:40;;;;;;;8.58;4.65;;;;;;;37.93;28.36;99771.95;1751302;81;20979;-79
2021/06/24 13:35:16;;;;;;;18.25;4.22;;;;;;;38.11;28.01;99770.98;1764878;80;21069;-79
2021/06/24 13:38:09;;;;;;;10.88;3.92;;;;;;;38.20;28.10;99771.79;1764604;80;21598;-81
2021/06/24 13:40:43;;;;;;;13.62;4.22;;;;;;;38.19;27.98;99770.20;1777366;80;21004;-78
2021/06/24 13:43:15;;;;;;;14.80;5.12;;;;;;;38.21;27.60;99775.58;1765006;81;21057;-80
2021/06/24 13:45:42;;;;;;;14.95;4.90;;;;;;;38.21;27.80;99784.62;1764050;80;21000;-79
2021/06/24 13:48:08;;;;;;;34.53;5.65;;;;;;;38.19;27.24;99777.22;1751626;81;20964;-79
2021/06/24 13:50:35;;;;;;;13.45;4.85;;;;;;;38.09;27.25;99775.44;1764624;81;20932;-80
2021/06/24 13:53:18;;;;;;;21.87;4.00;;;;;;;37.92;27.61;99776.78;1751448;81;21086;-79
2021/06/24 13:55:45;;;;;;;19.45;4.17;;;;;;;37.93;28.18;99778.97;1764752;80;20968;-78
2021/06/24 13:58:11;;;;;;;19.25;4.70;;;;;;;37.82;27.98;99781.20;1765076;80;21477;-80
2021/06/24 14:00:39;;;;;;;28.05;5.87;;;;;;;37.71;27.39;99775.80;1764634;80;20991;-78
2021/06/24 14:03:10;;;;;;;16.93;4.42;;;;;;;37.59;27.38;99775.66;1764560;80;21425;-79
2021/06/24 14:05:36;;;;;;;15.98;4.40;;;;;;;37.53;27.39;99773.95;1751607;81;21480;-79
2021/06/24 14:08:04;;;;;;;18.98;4.28;;;;;;;37.54;27.45;99771.34;1751233;81;21107;-79
2021/06/24 14:10:31;;;;;;;12.70;3.83;;;;;;;37.44;27.58;99768.88;1751379;81;21301;-79
2021/06/24 14:12:58;;;;;;;18.32;4.17;;;;;;;37.36;27.89;99757.63;1764794;80;20967;-79
2021/06/24 14:15:25;;;;;;;20.97;4.50;;;;;;;37.30;28.27;99759.94;1751374;81;20957;-81
2021/06/24 14:17:52;;;;;;;17.52;3.55;;;;;;;37.44;28.34;99744.23;1764889;80;21075;-80
2021/06/24 14:20:20;;;;;;;15.43;4.33;;;;;;;37.59;28.08;99750.39;1764961;80;21473;-78
2021/06/24 14:22:47;;;;;;;7.42;3.62;;;;;;;37.80;27.86;99738.70;1751560;81;20912;-81
2021/06/24 14:25:14;;;;;;;13.25;4.15;;;;;;;38.08;27.69;99747.98;1751479;81;20980;-79
2021/06/24 14:27:42;;;;;;;25.60;5.03;;;;;;;38.23;27.44;99749.83;1764890;80;21520;-80
2021/06/24 14:30:09;;;;;;;18.32;5.05;;;;;;;38.29;27.51;99747.48;1751213;81;21087;-78
2021/06/24 14:32:35;;;;;;;27.20;4.95;;;;;;;38.40;27.49;99748.04;1764006;80;21124;-79
2021/06/24 14:35:03;;;;;;;18.27;4.65;;;;;;;38.54;27.69;99754.58;1764142;81;20999;-79
2021/06/24 14:37:32;;;;;;;21.82;4.28;;;;;;;38.55;27.88;99749.93;1741327;81;20999;-79
2021/06/24 14:39:59;;;;;;;20.05;4.85;;;;;;;38.49;28.33;99757.30;1725515;81;21148;-79
2021/06/24 14:42:26;;;;;;;19.37;4.60;;;;;;;38.54;28.59;99753.17;1721494;83;21536;-79
2021/06/24 14:44:53;;;;;;;15.30;4.83;;;;;;;38.55;28.63;99749.14;1727926;83;21154;-80
2021/06/24 14:47:20;;;;;;;27.82;5.40;;;;;;;38.45;28.81;99748.77;1727798;83;20956;-81
2021/06/24 14:49:46;;;;;;;17.07;5.20;;;;;;;38.31;28.95;99749.26;1728067;83;21043;-80
2021/06/24 14:52:13;;;;;;;22.55;5.53;;;;;;;38.12;29.25;99747.89;1727973;83;21035;-81
2021/06/24 14:54:40;;;;;;;22.48;5.30;;;;;;;38.12;29.56;99749.30;1727948;83;21046;-80
2021/06/24 14:57:07;;;;;;;22.55;5.05;;;;;;;38.03;29.81;99749.90;1748362;81;20996;-80
2021/06/24 14:59:34;;;;;;;16.40;6.28;;;;;;;37.90;29.77;99748.92;1771708;80;21536;-80
2021/06/24 15:02:03;;;;;;;27.58;5.37;;;;;;;37.45;30.47;99745.22;1764006;81;21058;-80
2021/06/24 15:04:29;;;;;;;17.20;5.87;;;;;;;36.98;30.52;99754.88;1757036;81;21521;-82
2021/06/24 15:06:55;;;;;;;26.57;6.22;;;;;;;36.65;30.68;99745.39;1764017;80;21532;-82
2021/06/24 15:09:23;;;;;;;34.53;6.80;;;;;;;36.37;30.58;99743.00;1763902;80;21749;-82
2021/06/24 15:11:51;;;;;;;28.05;5.92;;;;;;;36.26;30.41;99738.98;1763792;81;21034;-82
2021/06/24 15:14:18;;;;;;;27.70;6.25;;;;;;;36.29;30.82;99739.52;1733804;82;20932;-81
2021/06/24 15:16:44;;;;;;;27.50;6.45;;;;;;;36.36;31.21;99744.22;1733661;82;21032;-82
2021/06/24 15:19:11;;;;;;;27.58;6.08;;;;;;;36.46;30.65;99739.06;1746099;81;21063;-83
2021/06/24 15:21:39;;;;;;;21.85;6.42;;;;;;;36.49;30.20;99748.04;1744067;81;21033;-83
2021/06/24 15:24:07;;;;;;;22.65;6.35;;;;;;;36.62;29.73;99747.66;1757231;81;21004;-82
2021/06/24 15:26:34;;;;;;;34.35;6.95;;;;;;;36.71;29.92;99740.89;1757035;81;21008;-78
2021/06/24 15:29:00;;;;;;;24.63;5.50;;;;;;;36.80;30.28;99745.95;1711866;78;21539;-84
2021/06/24 15:31:28;;;;;;;27.10;6.65;;;;;;;36.95;30.21;99740.29;1634994;87;21551;-85
2021/06/24 15:33:56;;;;;;;34.58;7.85;;;;;;;36.94;29.79;99740.10;1627487;87;21551;-88
2021/06/24 15:36:23;;;;;;;22.60;7.08;;;;;;;36.89;29.83;99737.78;1635217;86;20960;-87
2021/06/24 15:38:50;;;;;;;22.25;6.53;;;;;;;36.88;29.67;99736.22;1636259;87;21029;-84
2021/06/24 15:41:17;;;;;;;34.60;6.42;;;;;;;36.92;29.56;99740.55;1636333;87;21045;-86
2021/06/24 15:43:44;;;;;;;17.92;5.95;;;;;;;36.91;29.17;99736.77;1636138;87;21593;-90
2021/06/24 15:46:11;;;;;;;17.65;5.40;;;;;;;36.95;29.47;99734.69;1635377;87;21182;-81
2021/06/24 15:48:37;;;;;;;24.47;5.37;;;;;;;37.01;29.21;99739.39;1636307;87;20996;-81
2021/06/24 15:51:05;;;;;;;19.00;5.70;;;;;;;37.00;29.06;99734.98;1635996;87;20979;-79
2021/06/24 15:53:32;;;;;;;29.75;5.85;;;;;;;36.97;29.27;99733.66;1636039;87;21142;-86
2021/06/24 15:55:59;;;;;;;22.32;5.83;;;;;;;36.98;29.27;99735.25;1635104;87;21043;-77
2021/06/24 15:58:27;;;;;;;34.58;5.60;;;;;;;36.92;29.65;99736.34;1636122;87;21524;-79
2021/06/24 16:00:56;;;;;;;18.60;5.22;;;;;;;36.88;28.94;99734.83;1636269;87;21673;-76
2021/06/24 16:03:24;;;;;;;24.98;6.35;;;;;;;36.65;29.01;99733.58;1636046;87;21600;-80
2021/06/24 16:05:52;;;;;;;29.72;7.22;;;;;;;36.54;29.54;99738.55;1636155;87;21115;-77
2021/06/24 16:08:19;;;;;;;18.07;5.03;;;;;;;36.53;29.64;99734.76;1636625;86;21130;-77
2021/06/24 16:10:48;;;;;;;28.55;5.95;;;;;;;36.64;29.78;99734.02;1636056;87;21067;-79
2021/06/24 16:13:15;;;;;;;27.93;5.33;;;;;;;36.62;29.40;99730.84;1632434;87;21084;-75
2021/06/24 16:15:44;;;;;;;22.62;5.37;;;;;;;36.59;29.74;99737.27;1614031;87;20929;-78
2021/06/24 16:18:11;;;;;;;27.15;5.67;;;;;;;36.62;30.01;99726.63;1636065;87;21060;-82
2021/06/24 16:20:38;;;;;;;19.95;5.33;;;;;;;36.56;29.60;99735.30;1636061;87;21566;-78
2021/06/24 16:23:05;;;;;;;18.27;5.20;;;;;;;36.54;29.75;99732.94;1635587;86;21204;-78
2021/06/24 16:25:32;;;;;;;23.75;5.20;;;;;;;36.52;29.64;99733.17;1635417;87;21091;-78
2021/06/24 16:27:58;;;;;;;27.32;4.72;;;;;;;36.34;29.73;99736.25;1640136;86;21036;-82
2021/06/24 16:30:25;;;;;;;22.77;5.62;;;;;;;36.21;30.14;99737.42;1656181;86;21057;-85
2021/06/24 16:32:54;;;;;;;26.45;5.80;;;;;;;36.08;30.24;99739.19;1653738;86;21119;-77
2021/06/24 16:35:24;;;;;;;27.15;6.67;;;;;;;36.01;30.65;99740.70;1638481;86;21778;-71
2021/06/24 16:37:51;;;;;;;27.00;6.17;;;;;;;35.92;31.13;99739.02;1652814;86;21123;-76
2021/06/24 16:40:18;;;;;;;26.90;5.90;;;;;;;35.89;31.72;99741.23;1647067;86;21014;-77
2021/06/24 16:42:47;;;;;;;25.52;6.87;;;;;;;35.91;31.94;99742.23;1625162;86;21001;-81
2021/06/24 16:45:15;;;;;;;21.52;6.42;;;;;;;35.84;32.19;99747.30;1653894;85;21080;-78
2021/06/24 16:47:42;;;;;;;28.80;7.47;;;;;;;35.68;32.51;99745.12;1648131;86;21578;-80
2021/06/24 16:50:12;;;;;;;29.95;8.43;;;;;;;35.54;32.89;99740.27;1653977;86;21004;-85
2021/06/24 16:52:40;;;;;;;18.02;6.70;;;;;;;35.37;33.54;99743.43;1654125;86;21517;-75
2021/06/24 16:55:10;;;;;;;33.55;9.85;;;;;;;35.21;33.87;99738.99;1653317;86;21133;-74
2021/06/24 16:57:37;;;;;;;26.75;8.03;;;;;;;35.11;34.21;99738.48;1634387;86;21098;-75
2021/06/24 17:00:07;;;;;;;35.00;8.60;;;;;;;34.96;34.65;99736.43;1653441;86;21086;-76
2021/06/24 17:02:34;;;;;;;42.67;10.00;;;;;;;34.76;35.08;99734.80;1652643;85;21108;-80
2021/06/24 17:05:01;;;;;;;23.42;8.98;;;;;;;34.59;35.52;99737.09;1648818;86;21072;-77
2021/06/24 17:07:27;;;;;;;22.75;8.65;;;;;;;34.47;35.75;99727.81;1653750;86;21621;-80
2021/06/24 17:09:56;;;;;;;23.40;8.10;;;;;;;34.35;36.21;99726.88;1653252;86;21061;-77
2021/06/24 17:12:23;;;;;;;34.53;7.58;;;;;;;34.22;36.56;99727.97;1653387;86;21140;-77
2021/06/24 17:14:50;;;;;;;24.82;5.97;;;;;;;34.10;36.86;99727.03;1653426;86;21092;-78
2021/06/24 17:17:16;;;;;;;27.75;7.08;;;;;;;33.99;37.31;99724.89;1653468;86;21044;-80
2021/06/24 17:19:44;;;;;;;33.02;7.17;;;;;;;33.84;37.60;99728.95;1661101;85;21203;-78
2021/06/24 17:22:12;;;;;;;32.53;8.78;;;;;;;33.73;37.89;99729.78;1667050;85;21106;-80
2021/06/24 17:24:39;;;;;;;44.10;7.90;;;;;;;33.70;37.97;99735.38;1653443;86;21968;-78
2021/06/24 17:27:07;;;;;;;54.55;8.63;;;;;;;33.73;38.10;99738.16;1653309;86;21043;-81
2021/06/24 17:29:34;;;;;;;24.07;7.72;;;;;;;33.76;38.27;99743.54;1650119;86;21656;-83
2021/06/24 17:32:02;;;;;;;34.75;6.97;;;;;;;33.69;38.63;99740.16;1638482;87;21079;-79
2021/06/24 17:34:29;;;;;;;18.80;6.30;;;;;;;33.46;39.13;99737.03;1639035;87;21161;-78
2021/06/24 17:36:57;;;;;;;25.85;7.67;;;;;;;33.24;39.80;99737.66;1641858;85;21000;-78
2021/06/24 17:39:25;;;;;;;27.75;7.83;;;;;;;33.03;40.15;99733.50;1638702;87;21052;-80
2021/06/24 17:41:52;;;;;;;29.37;6.85;;;;;;;32.88;40.53;99732.72;1638725;87;21097;-80
2021/06/24 17:44:19;;;;;;;36.70;7.08;;;;;;;32.71;40.87;99728.55;1638626;87;21597;-77
2021/06/24 17:46:46;;;;;;;35.92;6.85;;;;;;;32.66;40.87;99731.73;1638295;86;21056;-75
2021/06/24 17:49:18;;;;;;;28.10;7.87;;;;;;;32.69;41.03;99723.37;1638792;87;21141;-79
2021/06/24 17:51:44;;;;;;;19.98;5.70;;;;;;;32.68;41.17;99731.52;1638890;87;21088;-77
2021/06/24 17:54:11;;;;;;;31.65;7.58;;;;;;;32.70;41.32;99725.55;1638608;85;21089;-79
2021/06/24 17:56:39;;;;;;;27.48;7.65;;;;;;;32.66;41.46;99732.50;1636001;87;21020;-78
2021/06/24 17:59:06;;;;;;;19.90;6.67;;;;;;;32.62;41.58;99738.64;1638804;87;21130;-76
2021/06/24 18:01:34;;;;;;;28.83;8.08;;;;;;;32.55;41.74;99740.04;1639505;86;21914;-74
2021/06/24 18:04:01;;;;;;;31.12;7.22;;;;;;;32.50;42.04;99741.83;1639505;86;21548;-78
2021/06/24 18:06:27;;;;;;;20.10;8.45;;;;;;;32.22;42.79;99745.95;1639277;87;21099;-77
2021/06/24 18:08:54;;;;;;;21.62;7.42;;;;;;;31.95;43.51;99751.79;1639295;87;21092;-79
2021/06/24 18:11:21;;;;;;;26.60;7.92;;;;;;;31.74;44.07;99747.55;1651426;85;21148;-78
2021/06/24 18:13:48;;;;;;;34.58;8.73;;;;;;;31.56;44.62;99744.66;1639003;87;21876;-77
2021/06/24 18:16:15;;;;;;;25.97;7.35;;;;;;;31.40;45.02;99743.36;1638833;87;20995;-77
2021/06/24 18:18:42;;;;;;;25.23;8.43;;;;;;;31.28;45.35;99745.86;1638305;87;21280;-76
2021/06/24 18:21:10;;;;;;;36.45;7.35;;;;;;;31.20;45.56;99747.59;1638949;87;21111;-75
2021/06/24 18:23:37;;;;;;;29.60;8.80;;;;;;;31.18;45.38;99750.75;1638784;87;21622;-75
2021/06/24 18:26:04;;;;;;;27.37;8.00;;;;;;;31.17;45.54;99755.50;1639121;87;21146;-74
2021/06/24 18:28:31;;;;;;;38.67;8.98;;;;;;;31.18;45.75;99749.36;1625204;85;21105;-78
2021/06/24 18:30:58;;;;;;;30.35;7.55;;;;;;;31.05;46.58;99757.22;1606686;88;21545;-78
2021/06/24 18:33:25;;;;;;;34.45;8.28;;;;;;;30.89;46.97;99749.70;1634495;87;21244;-76
2021/06/24 18:35:52;;;;;;;43.20;12.03;;;;;;;30.74;47.90;99750.18;1635965;87;21595;-78
2021/06/24 18:38:19;;;;;;;51.48;10.75;;;;;;;30.55;48.50;99748.24;1638053;87;21683;-75
2021/06/24 18:40:46;;;;;;;30.90;8.45;;;;;;;30.47;48.44;99746.55;1637182;87;21079;-75
2021/06/24 18:43:13;;;;;;;37.88;9.35;;;;;;;30.40;48.23;99747.27;1635498;86;21571;-76
2021/06/24 18:45:40;;;;;;;28.90;7.10;;;;;;;30.38;48.26;99747.43;1633851;86;21544;-76
2021/06/24 18:48:07;;;;;;;34.60;9.23;;;;;;;30.32;48.49;99752.52;1632861;87;21645;-77
2021/06/24 18:50:35;;;;;;;40.38;8.95;;;;;;;30.21;48.95;99745.50;1636239;87;21095;-79
2021/06/24 18:53:03;;;;;;;45.15;8.58;;;;;;;30.12;49.72;99747.75;1635790;87;21092;-77
2021/06/24 18:55:39;;;;;;;35.43;9.13;;;;;;;29.98;50.08;99744.81;1636422;87;21085;-75
2021/06/24 18:57:58;;;;;;;31.75;10.63;;;;;;;29.92;50.47;99741.38;1610515;87;21020;-77
2021/06/24 19:00:26;;;;;;;31.48;10.20;;;;;;;29.81;51.72;99746.17;1636379;87;21051;-78
2021/06/24 19:02:52;;;;;;;35.50;8.75;;;;;;;29.70;51.91;99738.89;1632921;86;21110;-80
2021/06/24 19:05:19;;;;;;;35.15;8.48;;;;;;;29.60;52.05;99745.09;1635497;87;21113;-79
2021/06/24 19:07:46;;;;;;;34.78;12.13;;;;;;;29.51;52.08;99743.98;1636180;87;21127;-80
2021/06/24 19:10:14;;;;;;;26.75;10.60;;;;;;;29.47;52.61;99740.38;1637913;87;21080;-78
2021/06/24 19:12:42;;;;;;;48.25;11.80;;;;;;;29.42;52.64;99740.11;1625808;87;21024;-76
2021/06/24 19:15:11;;;;;;;31.05;9.48;;;;;;;29.43;52.44;99740.91;1636449;87;21463;-78
2021/06/24 19:17:38;;;;;;;37.13;9.65;;;;;;;29.49;52.64;99748.33;1636356;87;20995;-79
2021/06/24 19:20:06;;;;;;;35.55;9.90;;;;;;;29.49;52.82;99746.94;1636885;86;21038;-79
2021/06/24 19:22:33;;;;;;;35.38;8.40;;;;;;;29.46;53.00;99749.86;1636146;87;21565;-77
2021/06/24 19:25:01;;;;;;;15.05;7.67;;;;;;;29.42;53.15;99751.20;1636203;87;21578;-76
2021/06/24 19:27:28;;;;;;;23.12;7.92;;;;;;;29.40;53.24;99752.77;1630732;86;21153;-76
2021/06/24 19:29:55;;;;;;;37.60;7.53;;;;;;;29.43;53.15;99756.97;1628442;86;21078;-83
2021/06/24 19:32:21;;;;;;;18.80;6.72;;;;;;;29.42;53.12;99760.90;1632602;86;21576;-78
2021/06/24 19:34:52;;;;;;;22.22;7.53;;;;;;;29.41;53.13;99766.81;1633478;87;22466;-81
2021/06/24 19:37:18;;;;;;;30.43;6.40;;;;;;;29.42;53.11;99756.74;1631800;86;21051;-80
2021/06/24 19:39:46;;;;;;;22.15;5.85;;;;;;;29.45;52.84;99755.19;1627934;86;21996;-83
2021/06/24 19:42:12;;;;;;;30.25;6.47;;;;;;;29.48;52.56;99760.00;1623853;86;21014;-80
2021/06/24 19:44:39;;;;;;;21.70;5.53;;;;;;;29.52;52.08;99758.06;1635761;87;20972;-81
2021/06/24 19:47:06;;;;;;;15.75;6.40;;;;;;;29.57;51.85;99762.48;1637445;87;20976;-81
2021/06/24 19:49:34;;;;;;;17.75;5.53;;;;;;;29.56;51.57;99757.52;1638987;87;21647;-79
2021/06/24 19:52:01;;;;;;;23.35;6.42;;;;;;;29.51;51.51;99761.20;1634204;86;21162;-79
2021/06/24 19:54:28;;;;;;;21.55;6.83;;;;;;;29.43;51.50;99758.34;1635530;87;21043;-77
2021/06/24 19:56:55;;;;;;;24.82;5.80;;;;;;;29.36;51.25;99762.39;1635831;87;21020;-74
2021/06/24 19:59:22;;;;;;;30.75;6.17;;;;;;;29.33;51.28;99762.34;1630170;86;21063;-74
2021/06/24 20:01:49;;;;;;;28.23;6.78;;;;;;;29.31;51.13;99766.06;1639935;87;21536;-77
2021/06/24 20:04:16;;;;;;;16.45;4.42;;;;;;;29.26;51.01;99775.47;1637940;87;21113;-81
2021/06/24 20:06:43;;;;;;;14.87;4.87;;;;;;;29.23;50.88;99783.15;1634844;87;21117;-80
2021/06/24 20:09:11;;;;;;;15.10;5.10;;;;;;;29.23;50.79;99787.30;1636832;86;20983;-79
2021/06/24 20:11:38;;;;;;;18.37;5.78;;;;;;;29.25;50.48;99786.36;1638573;87;21094;-82
2021/06/24 20:14:06;;;;;;;21.20;5.92;;;;;;;29.29;50.29;99786.41;1636873;87;21056;-83
2021/06/24 20:16:33;;;;;;;31.10;10.55;;;;;;;29.23;50.26;99785.12;1631788;86;22512;-79
2021/06/24 20:19:00;;;;;;;16.67;5.78;;;;;;;29.14;50.42;99788.73;1612987;89;21485;-78
2021/06/24 20:21:28;;;;;;;24.50;6.35;;;;;;;29.08;50.47;99786.86;1612671;89;21044;-81
2021/06/24 20:23:55;;;;;;;15.83;6.65;;;;;;;29.08;50.32;99785.48;1638383;87;21582;-75
2021/06/24 20:26:22;;;;;;;22.32;6.17;;;;;;;29.04;50.54;99784.62;1637665;86;21168;-76
2021/06/24 20:28:49;;;;;;;15.23;6.67;;;;;;;29.01;50.70;99783.41;1638510;87;21154;-74
2021/06/24 20:31:16;;;;;;;23.62;6.00;;;;;;;29.02;50.90;99782.80;1641400;86;21557;-72
2021/06/24 20:33:43;;;;;;;15.88;6.15;;;;;;;29.02;50.83;99775.88;1643353;86;21559;-75
2021/06/24 20:36:11;;;;;;;16.32;5.12;;;;;;;29.01;50.98;99777.07;1643398;87;21120;-73
2021/06/24 20:38:39;;;;;;;22.37;5.60;;;;;;;28.91;51.18;99780.46;1644595;87;21105;-76
2021/06/24 20:41:07;;;;;;;24.63;6.15;;;;;;;28.78;51.63;99781.22;1643516;87;21266;-77
2021/06/24 20:43:34;;;;;;;27.37;7.50;;;;;;;28.72;52.04;99782.72;1617671;88;21092;-75
2021/06/24 20:46:02;;;;;;;19.12;4.30;;;;;;;28.62;52.24;99780.52;1638934;87;21340;-78
2021/06/24 20:48:29;;;;;;;11.08;5.03;;;;;;;28.53;52.53;99775.23;1644233;87;21608;-78
2021/06/24 20:50:57;;;;;;;21.50;5.35;;;;;;;28.41;53.05;99774.58;1643872;87;20980;-77
2021/06/24 20:53:25;;;;;;;20.45;5.45;;;;;;;28.31;53.21;99777.95;1644589;87;22257;-75
2021/06/24 20:55:52;;;;;;;22.07;6.25;;;;;;;28.20;53.34;99779.73;1626351;87;21087;-80
2021/06/24 20:58:22;;;;;;;21.65;6.22;;;;;;;28.17;53.22;99783.42;1643816;87;21295;-78
2021/06/24 21:00:49;;;;;;;8.88;4.78;;;;;;;28.21;53.06;99779.34;1643971;87;21567;-76
2021/06/24 21:03:19;;;;;;;18.42;5.67;;;;;;;28.16;53.36;99773.52;1625946;87;21069;-77
2021/06/24 21:05:46;;;;;;;23.42;7.12;;;;;;;28.11;53.42;99779.34;1644200;87;21156;-78
2021/06/24 21:08:13;;;;;;;29.12;8.93;;;;;;;28.10;53.65;99773.59;1619424;87;21643;-77
2021/06/24 21:10:40;;;;;;;18.27;6.65;;;;;;;28.12;53.75;99776.00;1643939;87;21170;-79
2021/06/24 21:13:07;;;;;;;41.15;8.10;;;;;;;28.16;54.08;99775.48;1642666;86;21067;-76
2021/06/24 21:15:33;;;;;;;34.23;9.05;;;;;;;28.17;54.15;99777.09;1643983;86;20972;-73
2021/06/24 21:18:00;;;;;;;41.45;9.55;;;;;;;28.18;54.41;99778.70;1643545;87;21132;-74